KRKP/RKP METAR and TAF weather

Enter ICAO airport designator
Station Type Date Time Source
KRKP METAR 2022/06/29 00:53 UTC NOAA

KRKP 290053Z AUTO 34007KT 10SM CLR 26/22 A3004 RMK AO2 SLP173 T02560217


Station Type Date Time Source
KRKP Decoded METAR 2022/06/29 00:53 UTC NOAA

ROCKPORT ARANSAS COUNTY AIRPORT , TX, United States (KRKP) 28-05N 97-03W 6M
Jun 28, 2022 - 08:53 PM EDT / 2022.06.29 0053 UTC
Wind: from the NNW (340 degrees) at 8 MPH (7 KT):0
Visibility: 10 mile(s):0
Sky conditions: clear
Temperature: 78.1 F (25.6 C)
Dew Point: 71.1 F (21.7 C)
Relative Humidity: 79%
Pressure (altimeter): 30.04 in. Hg (1017 hPa)
ob: KRKP 290053Z AUTO 34007KT 10SM CLR 26/22 A3004 RMK AO2 SLP173 T02560217
cycle: 1

Station Type Date Time Source
KRKP TAF UTC NOAA

Error!

Example: see airport list